Time;durP1;ratioP1;P1;durP2;ratioP2;P2;SDS_P1;SDS_P2;PMS_P1;PMS_P2;Temp;Humidity;BMP_temperature;BMP_pressure;BME280_temperature;BME280_humidity;BME280_pressure;Samples;Min_cycle;Max_cycle;Signal;HPM_P1;HPM_P2
2022/03/21 00:01:59;;;;;;;2.05;1.33;;;6.30;67.30;;;;;;4432386;32;20072;-68
2022/03/21 00:04:24;;;;;;;1.20;1.10;;;6.20;67.40;;;;;;4432318;32;20132;-67
2022/03/21 00:06:50;;;;;;;1.80;1.35;;;6.20;67.80;;;;;;4431852;32;20077;-67
2022/03/21 00:09:16;;;;;;;3.03;1.50;;;6.20;67.70;;;;;;4432476;32;20131;-66
2022/03/21 00:11:41;;;;;;;2.42;1.23;;;6.20;67.50;;;;;;4432909;32;20080;-66
2022/03/21 00:14:10;;;;;;;0.73;0.73;;;6.10;67.60;;;;;;4431200;32;20134;-66
2022/03/21 00:16:37;;;;;;;0.90;0.90;;;6.10;67.80;;;;;;4432746;32;20380;-66
2022/03/21 00:19:03;;;;;;;1.50;1.40;;;6.10;67.80;;;;;;4433305;32;20081;-67
2022/03/21 00:21:29;;;;;;;6.43;1.33;;;6.10;67.80;;;;;;4433142;32;20398;-67
2022/03/21 00:23:54;;;;;;;1.75;1.62;;;6.10;67.80;;;;;;4430832;32;20152;-67
2022/03/21 00:26:20;;;;;;;1.55;1.12;;;6.00;67.90;;;;;;4436022;32;20072;-67
2022/03/21 00:28:45;;;;;;;1.80;1.12;;;6.00;68.30;;;;;;4436373;32;20521;-67
2022/03/21 00:31:11;;;;;;;1.65;1.25;;;6.00;68.10;;;;;;4431956;32;20166;-67
2022/03/21 00:33:36;;;;;;;0.80;0.80;;;6.00;67.90;;;;;;4430188;32;20180;-66
2022/03/21 00:36:02;;;;;;;4.57;0.93;;;6.00;67.90;;;;;;4431956;32;20440;-67
2022/03/21 00:38:28;;;;;;;0.60;0.60;;;5.90;68.30;;;;;;4433588;32;20086;-68
2022/03/21 00:40:54;;;;;;;5.00;1.42;;;5.90;68.20;;;;;;4431196;32;20090;-67
2022/03/21 00:43:22;;;;;;;2.05;1.77;;;5.90;68.40;;;;;;4433493;32;20061;-67
2022/03/21 00:45:52;;;;;;;1.17;1.10;;;5.90;68.30;;;;;;4434401;32;20109;-67
2022/03/21 00:48:17;;;;;;;1.08;1.00;;;5.80;68.70;;;;;;4430953;32;20130;-67
2022/03/21 00:50:43;;;;;;;1.05;1.00;;;5.80;68.90;;;;;;4433008;32;20401;-67
2022/03/21 00:53:09;;;;;;;2.03;1.27;;;5.70;69.00;;;;;;4431726;32;20135;-67
2022/03/21 00:55:34;;;;;;;1.12;1.00;;;5.70;68.90;;;;;;4431771;32;20147;-67
2022/03/21 00:58:00;;;;;;;1.70;1.05;;;5.80;69.20;;;;;;4432241;32;20571;-67
2022/03/21 01:00:28;;;;;;;1.48;1.37;;;5.80;69.20;;;;;;4435903;32;20454;-67
2022/03/21 01:02:55;;;;;;;1.15;1.00;;;5.70;69.00;;;;;;4429934;32;21154;-67
2022/03/21 01:05:22;;;;;;;2.15;1.10;;;5.70;69.10;;;;;;4437362;32;20177;-67
2022/03/21 01:07:48;;;;;;;3.70;1.80;;;5.60;69.20;;;;;;4434900;32;20561;-67
2022/03/21 01:10:16;;;;;;;1.05;0.98;;;5.70;69.20;;;;;;4436374;32;20066;-67
2022/03/21 01:12:43;;;;;;;2.15;1.30;;;5.70;69.10;;;;;;4433537;32;20675;-67
2022/03/21 01:15:10;;;;;;;0.62;0.62;;;5.60;70.00;;;;;;4433502;32;20081;-67
2022/03/21 01:17:36;;;;;;;1.05;1.05;;;5.60;69.30;;;;;;4431504;32;20416;-67
2022/03/21 01:20:03;;;;;;;5.25;2.33;;;5.70;69.10;;;;;;4436389;32;20076;-68
2022/03/21 01:22:28;;;;;;;1.15;1.15;;;5.70;68.90;;;;;;4435591;32;20097;-67
2022/03/21 01:24:54;;;;;;;1.00;1.00;;;5.70;69.00;;;;;;4433515;32;20065;-67
2022/03/21 01:27:20;;;;;;;1.85;1.58;;;5.60;69.00;;;;;;4433177;32;20104;-67
2022/03/21 01:29:45;;;;;;;2.12;1.25;;;5.60;69.20;;;;;;4435314;32;20514;-67
2022/03/21 01:32:11;;;;;;;1.65;1.05;;;5.50;69.50;;;;;;4436216;32;20415;-67
2022/03/21 01:34:36;;;;;;;1.65;1.27;;;5.50;69.60;;;;;;4434171;32;20100;-67
2022/03/21 01:37:02;;;;;;;1.23;1.15;;;5.40;69.80;;;;;;4437130;32;20078;-67
2022/03/21 01:39:27;;;;;;;0.77;0.77;;;5.50;69.60;;;;;;4436172;32;20105;-67
2022/03/21 01:41:53;;;;;;;0.82;0.82;;;5.50;70.60;;;;;;4432374;32;20359;-66
2022/03/21 01:44:20;;;;;;;1.17;1.08;;;5.50;69.70;;;;;;4431972;32;20167;-66
2022/03/21 01:46:46;;;;;;;0.80;0.80;;;5.40;69.80;;;;;;4435418;32;20435;-67
2022/03/21 01:49:11;;;;;;;1.05;0.98;;;5.40;69.90;;;;;;4433506;32;20073;-67
2022/03/21 01:51:38;;;;;;;1.55;1.35;;;5.30;70.20;;;;;;4434273;32;20082;-67
2022/03/21 01:56:02;;;;;;;0.43;0.43;;;5.30;70.30;;;;;;4435854;32;20081;-67
2022/03/21 01:56:50;;;;;;;3.45;1.27;;;5.20;70.60;;;;;;4424101;32;20068;-67
2022/03/21 01:59:19;;;;;;;0.95;0.70;;;5.30;70.90;;;;;;4433590;32;20081;-67
2022/03/21 02:01:44;;;;;;;1.25;1.15;;;5.20;70.70;;;;;;4432911;32;20150;-67
2022/03/21 02:04:10;;;;;;;2.58;1.25;;;5.20;71.60;;;;;;4435004;32;20127;-67
2022/03/21 02:06:36;;;;;;;1.12;1.05;;;5.20;70.60;;;;;;4434433;32;20100;-67
2022/03/21 02:09:06;;;;;;;0.70;0.70;;;5.30;70.60;;;;;;4435721;32;20130;-66
2022/03/21 02:11:33;;;;;;;1.37;1.33;;;5.20;70.40;;;;;;4435322;32;20086;-67
2022/03/21 02:14:00;;;;;;;2.15;1.95;;;5.30;70.30;;;;;;4434199;32;20549;-66
2022/03/21 02:16:27;;;;;;;5.05;1.12;;;5.30;70.10;;;;;;4434285;32;20729;-67
2022/03/21 02:18:54;;;;;;;2.25;1.00;;;5.30;70.00;;;;;;4436606;32;20073;-67
2022/03/21 02:21:24;;;;;;;1.05;0.68;;;5.30;70.20;;;;;;4437439;32;20088;-67
2022/03/21 02:23:56;;;;;;;2.60;1.40;;;5.30;70.00;;;;;;4436517;32;20097;-66
2022/03/21 02:26:23;;;;;;;4.28;2.55;;;5.30;69.70;;;;;;4436763;32;20877;-67
2022/03/21 02:28:50;;;;;;;1.00;0.95;;;5.30;70.00;;;;;;4432970;32;20085;-66
2022/03/21 02:31:16;;;;;;;1.83;1.10;;;5.20;70.10;;;;;;4435720;32;20073;-66
2022/03/21 02:33:42;;;;;;;1.40;1.30;;;5.20;70.40;;;;;;4436704;32;20512;-66
2022/03/21 02:36:09;;;;;;;6.28;1.15;;;5.10;70.20;;;;;;4434522;32;20073;-67
2022/03/21 02:38:35;;;;;;;0.77;0.60;;;5.20;70.40;;;;;;4434789;32;20064;-67
2022/03/21 02:41:02;;;;;;;0.95;0.95;;;5.10;70.50;;;;;;4436636;32;20064;-67
2022/03/21 02:43:27;;;;;;;1.17;1.00;;;5.10;70.70;;;;;;4434242;32;20084;-67
2022/03/21 02:46:02;;;;;;;1.12;1.02;;;5.10;70.90;;;;;;4433199;32;20403;-66
2022/03/21 02:48:27;;;;;;;5.70;1.75;;;5.00;71.20;;;;;;4432287;32;20073;-67
2022/03/21 02:50:59;;;;;;;1.33;1.08;;;5.00;71.20;;;;;;4433311;32;20135;-67
2022/03/21 02:53:27;;;;;;;1.27;1.17;;;4.90;71.60;;;;;;4436139;32;20430;-67
2022/03/21 02:55:54;;;;;;;0.50;0.50;;;4.90;72.20;;;;;;4436036;32;20077;-67
2022/03/21 02:58:19;;;;;;;1.98;1.23;;;4.80;73.10;;;;;;4434743;32;20073;-67
2022/03/21 03:00:45;;;;;;;0.70;0.70;;;4.80;73.10;;;;;;4433724;32;20525;-67
2022/03/21 03:03:10;;;;;;;0.82;0.82;;;4.80;72.80;;;;;;4434306;32;20090;-67
2022/03/21 03:05:36;;;;;;;1.85;0.88;;;4.70;73.40;;;;;;4434224;32;20073;-67
2022/03/21 03:08:03;;;;;;;4.10;1.30;;;4.60;73.90;;;;;;4435686;32;20093;-67
2022/03/21 03:10:29;;;;;;;1.12;1.08;;;4.50;74.30;;;;;;4434230;32;20076;-67
2022/03/21 03:12:54;;;;;;;2.00;1.42;;;4.50;74.70;;;;;;4432494;32;20069;-67
2022/03/21 03:15:20;;;;;;;4.10;1.40;;;4.40;75.10;;;;;;4432951;32;20094;-67
2022/03/21 03:17:45;;;;;;;1.25;1.10;;;4.40;75.70;;;;;;4435521;32;20065;-67
2022/03/21 03:20:11;;;;;;;1.42;1.10;;;4.40;76.10;;;;;;4433798;32;20142;-67
2022/03/21 03:22:37;;;;;;;1.02;0.93;;;4.50;75.80;;;;;;4433960;32;20109;-67
2022/03/21 03:25:04;;;;;;;0.60;0.60;;;4.50;76.50;;;;;;4436117;32;20129;-67
2022/03/21 03:27:30;;;;;;;1.62;1.15;;;4.40;76.10;;;;;;4435237;32;20077;-67
2022/03/21 03:29:57;;;;;;;2.37;0.93;;;4.30;76.40;;;;;;4435520;32;20127;-66
2022/03/21 03:32:23;;;;;;;0.70;0.70;;;4.30;76.60;;;;;;4434431;32;20081;-67
2022/03/21 03:34:49;;;;;;;1.75;1.20;;;4.30;76.40;;;;;;4431541;32;20132;-67
2022/03/21 03:37:15;;;;;;;3.17;0.93;;;4.30;76.60;;;;;;4434537;32;20128;-67
2022/03/21 03:39:40;;;;;;;1.20;1.17;;;4.20;76.60;;;;;;4433662;32;20855;-67
2022/03/21 03:42:06;;;;;;;3.78;1.77;;;4.20;76.80;;;;;;4432027;32;20081;-67
2022/03/21 03:44:32;;;;;;;1.12;1.08;;;4.10;77.20;;;;;;4431326;32;20097;-67
2022/03/21 03:46:57;;;;;;;1.23;1.12;;;4.10;77.30;;;;;;4436798;32;20116;-67
2022/03/21 03:49:23;;;;;;;0.85;0.85;;;4.20;77.10;;;;;;4432757;32;20064;-67
2022/03/21 03:51:49;;;;;;;0.80;0.80;;;4.20;77.30;;;;;;4433535;32;20486;-67
2022/03/21 03:54:15;;;;;;;3.15;2.15;;;4.10;77.50;;;;;;4433515;32;20107;-66
2022/03/21 03:56:40;;;;;;;1.30;1.20;;;4.00;77.70;;;;;;4435430;32;20090;-66
2022/03/21 03:59:06;;;;;;;2.15;1.40;;;4.00;78.20;;;;;;4431222;32;20080;-66
2022/03/21 04:01:31;;;;;;;3.22;2.08;;;3.90;78.50;;;;;;4431641;32;20081;-66
2022/03/21 04:03:59;;;;;;;2.92;1.33;;;3.90;78.60;;;;;;4435704;32;20085;-67
2022/03/21 04:06:25;;;;;;;2.30;1.83;;;3.80;78.50;;;;;;4436036;32;20061;-67
2022/03/21 04:08:51;;;;;;;0.68;0.55;;;3.90;78.90;;;;;;4431693;32;20102;-66
2022/03/21 04:11:17;;;;;;;0.75;0.75;;;3.80;78.90;;;;;;4433880;32;20069;-67
2022/03/21 04:13:43;;;;;;;1.33;1.23;;;3.70;79.10;;;;;;4430508;32;20065;-66
2022/03/21 04:16:09;;;;;;;1.12;1.12;;;3.80;79.10;;;;;;4433089;32;20116;-66
2022/03/21 04:18:36;;;;;;;0.88;0.88;;;3.70;79.20;;;;;;4434545;32;20093;-66
2022/03/21 04:21:02;;;;;;;5.45;2.30;;;3.70;79.60;;;;;;4432700;32;20065;-66
2022/03/21 04:23:28;;;;;;;0.80;0.80;;;3.60;79.70;;;;;;4433819;32;20478;-66
2022/03/21 04:25:53;;;;;;;0.55;0.55;;;3.60;80.00;;;;;;4431276;32;20061;-67
2022/03/21 04:28:19;;;;;;;2.83;2.05;;;3.60;80.00;;;;;;4433463;32;20077;-67
2022/03/21 04:30:44;;;;;;;1.25;1.17;;;3.50;80.00;;;;;;4431301;32;20065;-67
2022/03/21 04:33:12;;;;;;;1.25;1.20;;;3.50;80.30;;;;;;4433649;32;20109;-67
2022/03/21 04:35:39;;;;;;;2.12;1.35;;;3.60;80.70;;;;;;4431320;32;20078;-67
2022/03/21 04:38:13;;;;;;;2.67;1.00;;;3.50;80.70;;;;;;4432493;32;20124;-68
2022/03/21 04:40:44;;;;;;;0.80;0.80;;;3.50;80.90;;;;;;4433590;32;20084;-67
2022/03/21 04:43:11;;;;;;;0.82;0.82;;;3.50;80.80;;;;;;4433304;32;20069;-67
2022/03/21 04:45:37;;;;;;;1.30;1.20;;;3.40;81.40;;;;;;4433700;32;20506;-67
2022/03/21 04:48:04;;;;;;;3.60;1.70;;;3.50;80.60;;;;;;4436042;32;20565;-67
2022/03/21 04:50:31;;;;;;;45.03;3.90;;;3.40;81.00;;;;;;4435320;32;20549;-67
2022/03/21 04:52:57;;;;;;;1.83;1.35;;;3.40;80.90;;;;;;4437275;32;20177;-67
2022/03/21 04:55:23;;;;;;;1.45;1.00;;;3.40;80.90;;;;;;4435974;32;20932;-67
2022/03/21 04:57:49;;;;;;;1.33;1.10;;;3.50;81.00;;;;;;4436223;32;20120;-67
2022/03/21 05:00:14;;;;;;;1.45;1.25;;;3.50;80.80;;;;;;4437237;32;20422;-67
2022/03/21 05:02:41;;;;;;;2.58;1.85;;;3.40;80.60;;;;;;4433321;32;20136;-67
2022/03/21 05:05:08;;;;;;;1.67;1.35;;;3.30;81.30;;;;;;4432416;32;20094;-67
2022/03/21 05:07:39;;;;;;;1.90;1.45;;;3.30;81.40;;;;;;4434718;32;20097;-67
2022/03/21 05:10:05;;;;;;;6.32;1.67;;;3.30;81.90;;;;;;4436247;32;20077;-67
2022/03/21 05:12:30;;;;;;;1.85;1.70;;;3.30;81.50;;;;;;4435563;32;20093;-67
2022/03/21 05:14:56;;;;;;;1.00;0.95;;;3.30;81.40;;;;;;4437072;32;20069;-68
2022/03/21 05:17:22;;;;;;;1.92;1.77;;;3.20;81.60;;;;;;4434190;32;20124;-67
2022/03/21 05:19:47;;;;;;;1.80;1.45;;;3.10;82.20;;;;;;4431908;32;20423;-66
2022/03/21 05:22:13;;;;;;;0.88;0.88;;;3.10;82.50;;;;;;4428377;32;20066;-66
2022/03/21 05:31:09;;;;;;;1.08;1.08;;;3.20;82.80;;;;;;4420361;32;20130;-68
2022/03/21 05:35:56;;;;;;;1.40;1.30;;;3.30;82.70;;;;;;4423332;32;20102;-68
2022/03/21 05:38:22;;;;;;;;;;;3.20;82.70;;;;;;4435485;32;20097;-67
2022/03/21 05:40:48;;;;;;;0.80;0.80;;;3.20;83.00;;;;;;4434864;32;19951;-67
2022/03/21 05:43:14;;;;;;;1.52;1.10;;;3.20;82.10;;;;;;4436958;32;20073;-67
2022/03/21 05:45:39;;;;;;;1.45;1.25;;;3.20;82.20;;;;;;4433634;32;20097;-67
2022/03/21 05:49:04;;;;;;;1.27;1.15;;;3.20;82.20;;;;;;4434200;32;20434;-67
2022/03/21 05:50:51;;;;;;;0.85;0.85;;;3.20;82.40;;;;;;4421411;32;20057;-67
2022/03/21 05:53:17;;;;;;;1.75;1.62;;;3.30;82.00;;;;;;4431714;32;20072;-67
2022/03/21 05:55:45;;;;;;;1.27;1.12;;;3.20;82.00;;;;;;4434922;32;20085;-67
2022/03/21 05:58:11;;;;;;;1.98;1.77;;;3.30;82.40;;;;;;4435949;32;20588;-67
2022/03/21 06:00:37;;;;;;;13.75;3.83;;;3.40;82.30;;;;;;4432462;32;20120;-67
2022/03/21 06:03:04;;;;;;;1.65;1.55;;;3.40;82.30;;;;;;4429463;32;20532;-67
2022/03/21 06:05:30;;;;;;;1.08;0.93;;;3.50;81.50;;;;;;4431430;32;20069;-67
2022/03/21 06:07:56;;;;;;;2.50;1.17;;;3.40;81.80;;;;;;4438359;32;20094;-69
2022/03/21 06:10:21;;;;;;;0.60;0.60;;;3.40;81.80;;;;;;4436355;32;20069;-68
2022/03/21 06:12:48;;;;;;;1.33;1.23;;;3.60;81.40;;;;;;4433189;32;20081;-68
2022/03/21 06:15:13;;;;;;;2.08;1.00;;;3.70;80.50;;;;;;4431260;32;20060;-68
2022/03/21 06:17:40;;;;;;;1.08;1.08;;;3.80;80.60;;;;;;4422922;32;20113;-67
2022/03/21 06:20:10;;;;;;;2.55;1.42;;;3.70;80.30;;;;;;4430425;32;20105;-68
2022/03/21 06:22:36;;;;;;;1.52;1.08;;;3.70;80.30;;;;;;4432113;32;20077;-68
2022/03/21 06:25:02;;;;;;;1.05;1.05;;;3.70;80.10;;;;;;4433440;32;20333;-68
2022/03/21 06:27:27;;;;;;;1.87;1.50;;;3.80;80.00;;;;;;4420377;32;20120;-68
2022/03/21 06:29:54;;;;;;;0.73;0.73;;;3.80;79.90;;;;;;4432810;32;20134;-68
2022/03/21 06:32:20;;;;;;;0.88;0.88;;;3.90;79.60;;;;;;4410464;32;20096;-68
2022/03/21 06:34:45;;;;;;;18.58;1.15;;;3.90;79.60;;;;;;4434376;32;20148;-67
2022/03/21 06:37:11;;;;;;;2.58;1.60;;;4.10;79.10;;;;;;4426032;32;20136;-66
2022/03/21 06:39:37;;;;;;;2.80;1.30;;;4.20;78.40;;;;;;4421422;32;20648;-67
2022/03/21 06:42:06;;;;;;;1.25;1.08;;;4.20;78.20;;;;;;4428954;32;20122;-68
2022/03/21 06:44:31;;;;;;;6.32;3.03;;;4.10;78.70;;;;;;4426064;32;20196;-67
2022/03/21 06:46:58;;;;;;;3.05;0.90;;;4.20;78.60;;;;;;4426373;32;20092;-67
2022/03/21 06:49:29;;;;;;;2.37;1.05;;;4.30;78.30;;;;;;4423794;32;20528;-68
2022/03/21 06:51:56;;;;;;;5.37;1.70;;;4.30;78.10;;;;;;4427333;32;20086;-68
2022/03/21 06:54:22;;;;;;;2.62;1.35;;;4.30;78.10;;;;;;4422478;32;20108;-67
2022/03/21 06:56:47;;;;;;;2.72;1.42;;;4.40;77.90;;;;;;4415858;32;20109;-67
2022/03/21 06:59:13;;;;;;;1.17;1.15;;;4.50;78.00;;;;;;4415844;32;20088;-67
2022/03/21 07:01:38;;;;;;;3.08;2.12;;;4.50;78.60;;;;;;4410665;32;20658;-67
2022/03/21 07:04:04;;;;;;;2.87;1.83;;;4.50;78.80;;;;;;4413082;32;20097;-67
2022/03/21 07:06:30;;;;;;;1.10;1.02;;;4.70;77.80;;;;;;4405268;32;20092;-67
2022/03/21 07:08:57;;;;;;;1.12;1.02;;;4.90;76.90;;;;;;4414271;32;21299;-67
2022/03/21 07:11:23;;;;;;;1.17;0.93;;;5.10;76.90;;;;;;4403263;32;20140;-67
2022/03/21 07:13:49;;;;;;;5.28;2.12;;;5.20;76.30;;;;;;4412830;32;21654;-67
2022/03/21 07:16:16;;;;;;;1.98;1.85;;;5.10;74.50;;;;;;4410914;32;20104;-67
2022/03/21 07:18:43;;;;;;;1.90;1.62;;;5.20;75.00;;;;;;4407072;32;21467;-68
2022/03/21 07:21:09;;;;;;;1.17;1.08;;;5.30;74.30;;;;;;4416883;32;20065;-67
2022/03/21 07:23:34;;;;;;;2.78;1.83;;;5.40;73.80;;;;;;4413830;32;20790;-67
2022/03/21 07:26:00;;;;;;;6.43;1.85;;;5.40;73.30;;;;;;4404336;32;20101;-67
2022/03/21 07:28:26;;;;;;;2.00;1.83;;;5.60;73.70;;;;;;4413228;32;20069;-67
2022/03/21 07:30:52;;;;;;;5.75;2.35;;;5.70;73.00;;;;;;4411774;32;21355;-67
2022/03/21 07:33:18;;;;;;;5.25;1.87;;;5.90;72.70;;;;;;4413809;32;20097;-67
2022/03/21 07:35:44;;;;;;;0.75;0.75;;;5.90;71.60;;;;;;4408794;32;102626;-67
2022/03/21 07:38:10;;;;;;;1.20;1.08;;;6.00;71.40;;;;;;4406244;32;20088;-67
2022/03/21 07:40:35;;;;;;;1.58;1.33;;;6.10;71.60;;;;;;4410283;32;20110;-67
2022/03/21 07:43:01;;;;;;;1.70;1.48;;;6.30;71.40;;;;;;4409715;32;20242;-67
2022/03/21 07:47:26;;;;;;;1.92;1.33;;;6.30;70.20;;;;;;4409953;32;20101;-68
2022/03/21 07:48:12;;;;;;;6.65;0.90;;;6.40;69.30;;;;;;4397388;32;20109;-68
2022/03/21 07:50:38;;;;;;;23.65;1.00;;;6.60;68.60;;;;;;4408045;32;20085;-68
2022/03/21 07:53:04;;;;;;;1.87;0.90;;;6.70;67.00;;;;;;4405223;32;20259;-67
2022/03/21 07:55:31;;;;;;;1.42;0.93;;;6.80;66.90;;;;;;4414035;32;20529;-67
2022/03/21 07:57:57;;;;;;;1.08;1.00;;;6.90;64.50;;;;;;4414288;32;20092;-67
2022/03/21 08:00:23;;;;;;;1.80;0.88;;;6.80;64.10;;;;;;4408098;32;20666;-67
2022/03/21 08:02:51;;;;;;;1.40;1.00;;;6.80;64.70;;;;;;4403410;32;20986;-67
2022/03/21 08:05:17;;;;;;;1.12;1.02;;;6.90;64.60;;;;;;4408185;32;20792;-67
2022/03/21 08:07:43;;;;;;;1.55;1.27;;;7.10;64.60;;;;;;4409914;32;20084;-67
2022/03/21 08:10:10;;;;;;;2.50;1.65;;;7.30;63.70;;;;;;4410340;32;20225;-68
2022/03/21 08:12:37;;;;;;;1.60;1.42;;;7.30;63.60;;;;;;4408261;32;20092;-67
2022/03/21 08:15:03;;;;;;;6.20;1.58;;;7.50;62.80;;;;;;4409548;32;21422;-67
2022/03/21 08:17:30;;;;;;;2.92;1.77;;;7.60;62.60;;;;;;4401715;32;20751;-67
2022/03/21 08:19:56;;;;;;;1.05;0.98;;;7.60;62.10;;;;;;4407792;32;20250;-66
2022/03/21 08:22:21;;;;;;;4.30;1.40;;;7.60;62.60;;;;;;4398448;32;20845;-67
2022/03/21 08:24:47;;;;;;;30.50;1.50;;;7.70;61.30;;;;;;4405846;32;20116;-66
2022/03/21 08:27:14;;;;;;;0.50;0.50;;;7.80;60.80;;;;;;4407884;32;20404;-67
2022/03/21 08:29:39;;;;;;;0.95;0.95;;;8.00;60.40;;;;;;4411707;32;20430;-68
2022/03/21 08:32:06;;;;;;;1.00;1.00;;;8.10;60.90;;;;;;4407621;32;20092;-68
2022/03/21 08:34:31;;;;;;;0.85;0.82;;;8.30;60.40;;;;;;4411255;32;20867;-67
2022/03/21 08:36:57;;;;;;;2.15;1.45;;;8.40;58.30;;;;;;4413876;32;20092;-67
2022/03/21 08:39:22;;;;;;;1.00;0.88;;;8.40;57.80;;;;;;4415895;32;20062;-67
2022/03/21 08:41:48;;;;;;;3.15;1.35;;;8.60;58.10;;;;;;4406528;32;20126;-67
2022/03/21 08:44:13;;;;;;;12.73;2.28;;;8.70;57.80;;;;;;4415435;32;20105;-67
2022/03/21 08:46:39;;;;;;;0.57;0.57;;;8.70;57.10;;;;;;4408690;32;20837;-67
2022/03/21 08:49:38;;;;;;;1.27;1.00;;;8.70;57.30;;;;;;4408119;32;20113;-67
2022/03/21 08:51:50;;;;;;;2.28;1.10;;;8.80;57.20;;;;;;4381049;32;20157;-66
2022/03/21 08:54:16;;;;;;;1.45;1.05;;;8.70;57.10;;;;;;4405166;32;20378;-67
2022/03/21 08:56:41;;;;;;;1.12;1.05;;;8.70;57.60;;;;;;4397434;32;20116;-66
2022/03/21 08:59:07;;;;;;;1.15;1.08;;;9.00;57.80;;;;;;4404472;32;20103;-66
2022/03/21 09:01:33;;;;;;;4.97;2.12;;;9.10;57.50;;;;;;4408253;32;20620;-67
2022/03/21 09:04:01;;;;;;;1.48;1.02;;;9.30;57.40;;;;;;4415573;32;20158;-66
2022/03/21 09:06:27;;;;;;;1.15;1.10;;;9.20;56.60;;;;;;4409684;32;20106;-67
2022/03/21 09:08:53;;;;;;;0.45;0.45;;;9.20;56.90;;;;;;4409334;32;20474;-67
2022/03/21 09:11:19;;;;;;;2.62;1.95;;;9.40;56.70;;;;;;4407507;32;20102;-67
2022/03/21 09:13:45;;;;;;;1.05;0.90;;;9.50;56.60;;;;;;4409898;32;20084;-67
2022/03/21 09:16:12;;;;;;;1.40;1.10;;;9.50;56.40;;;;;;4406402;32;20603;-67
2022/03/21 09:18:37;;;;;;;1.85;1.15;;;9.50;55.80;;;;;;4407302;32;20147;-67
2022/03/21 09:21:03;;;;;;;1.08;0.70;;;9.50;56.30;;;;;;4407575;32;21261;-67
2022/03/21 09:23:28;;;;;;;2.17;1.45;;;9.80;57.00;;;;;;4408465;32;20105;-67
2022/03/21 09:25:54;;;;;;;0.62;0.62;;;9.90;55.60;;;;;;4414072;32;20508;-67
2022/03/21 09:28:19;;;;;;;1.37;0.98;;;10.00;55.30;;;;;;4418469;32;20113;-67
2022/03/21 09:30:45;;;;;;;1.35;0.88;;;9.80;55.30;;;;;;4414246;32;20170;-66
2022/03/21 09:33:10;;;;;;;4.25;1.05;;;10.00;55.40;;;;;;4408447;32;20117;-66
2022/03/21 09:35:37;;;;;;;6.55;1.65;;;10.20;54.80;;;;;;4416122;32;20105;-66
2022/03/21 09:38:03;;;;;;;0.40;0.40;;;10.40;54.20;;;;;;4416085;32;20082;-66
2022/03/21 09:40:29;;;;;;;1.12;0.93;;;10.50;53.60;;;;;;4414675;32;21719;-66
2022/03/21 09:42:55;;;;;;;1.05;0.95;;;10.60;53.60;;;;;;4409756;32;20157;-67
2022/03/21 09:45:20;;;;;;;0.60;0.60;;;10.80;53.20;;;;;;4413531;32;20096;-66
2022/03/21 09:48:19;;;;;;;9.93;2.12;;;10.70;52.70;;;;;;4412783;32;20084;-66
2022/03/21 09:50:34;;;;;;;5.28;0.85;;;11.00;53.00;;;;;;4398356;32;20634;-67
2022/03/21 09:53:00;;;;;;;4.85;1.37;;;11.20;52.90;;;;;;4416743;32;20169;-67
2022/03/21 09:55:26;;;;;;;1.83;0.65;;;11.70;52.40;;;;;;4420179;32;20104;-67
2022/03/21 09:57:52;;;;;;;4.05;0.90;;;11.80;52.00;;;;;;4413889;32;20495;-67
2022/03/21 10:00:18;;;;;;;1.65;1.48;;;11.70;52.20;;;;;;4418532;32;20073;-67
2022/03/21 10:02:43;;;;;;;1.10;1.05;;;11.70;51.80;;;;;;4415445;32;20089;-66
2022/03/21 10:05:29;;;;;;;15.35;0.88;;;11.90;51.90;;;;;;4411460;32;20069;-67
2022/03/21 10:08:11;;;;;;;0.98;0.70;;;11.80;52.60;;;;;;4402829;32;20073;-68
2022/03/21 10:10:37;;;;;;;1.05;0.85;;;12.00;52.60;;;;;;4412361;32;22377;-67
2022/03/21 10:13:03;;;;;;;0.52;0.52;;;12.00;51.80;;;;;;4409289;32;20459;-67
2022/03/21 10:15:29;;;;;;;0.73;0.73;;;11.80;51.70;;;;;;4407478;32;20650;-68
2022/03/21 10:18:12;;;;;;;3.45;0.80;;;11.90;52.70;;;;;;4408738;32;21425;-68
2022/03/21 10:20:40;;;;;;;1.27;0.80;;;12.40;51.80;;;;;;4408806;32;20100;-67
2022/03/21 10:23:23;;;;;;;3.47;1.52;;;12.30;51.20;;;;;;4404709;32;20108;-67
2022/03/21 10:25:49;;;;;;;0.52;0.45;;;12.50;51.70;;;;;;4406539;32;20213;-68
2022/03/21 10:28:36;;;;;;;0.62;0.62;;;12.60;51.30;;;;;;4394693;32;20296;-67
2022/03/21 10:31:03;;;;;;;5.70;1.10;;;12.50;52.40;;;;;;4393536;32;20399;-67
2022/03/21 10:33:29;;;;;;;0.60;0.60;;;12.70;51.30;;;;;;4407023;32;20801;-67
2022/03/21 10:35:55;;;;;;;2.90;1.83;;;12.80;52.30;;;;;;4404589;32;20695;-67
2022/03/21 10:38:36;;;;;;;0.52;0.52;;;13.10;51.00;;;;;;4403493;32;20097;-67
2022/03/21 10:41:06;;;;;;;0.80;0.80;;;13.30;50.80;;;;;;4407338;32;21076;-67
2022/03/21 10:43:32;;;;;;;1.52;0.98;;;13.20;50.70;;;;;;4409347;32;20108;-67
2022/03/21 10:45:58;;;;;;;1.23;1.12;;;13.40;50.40;;;;;;4403703;32;20571;-66
2022/03/21 10:48:26;;;;;;;1.17;1.08;;;13.50;50.30;;;;;;4403588;32;20105;-67
2022/03/21 10:50:54;;;;;;;0.57;0.57;;;13.70;49.80;;;;;;4406131;32;20118;-67
2022/03/21 10:53:26;;;;;;;0.50;0.50;;;13.50;49.50;;;;;;4403677;32;21269;-68
2022/03/21 10:56:04;;;;;;;2.15;1.60;;;13.20;50.00;;;;;;4399836;32;20779;-67
2022/03/21 10:58:34;;;;;;;3.70;0.70;;;13.00;50.10;;;;;;4409399;32;20113;-67
2022/03/21 11:01:29;;;;;;;1.90;1.00;;;13.20;51.00;;;;;;4412148;32;20155;-67
2022/03/21 11:03:57;;;;;;;1.17;0.75;;;13.20;49.80;;;;;;4400036;32;20491;-67
2022/03/21 11:06:23;;;;;;;0.90;0.77;;;13.60;51.00;;;;;;4411059;32;20105;-67
2022/03/21 11:08:52;;;;;;;1.08;0.95;;;13.90;50.30;;;;;;4406489;32;22604;-67
2022/03/21 11:11:18;;;;;;;0.50;0.50;;;14.40;49.50;;;;;;4409370;32;20220;-67
2022/03/21 11:13:45;;;;;;;1.05;0.90;;;14.40;48.90;;;;;;4412478;32;20089;-67
2022/03/21 11:16:12;;;;;;;2.72;0.73;;;14.40;48.40;;;;;;4403165;32;20081;-67
2022/03/21 11:18:39;;;;;;;0.85;0.80;;;14.50;47.80;;;;;;4396952;32;20809;-67
2022/03/21 11:21:07;;;;;;;2.45;1.10;;;14.20;46.90;;;;;;4410185;32;20384;-69
2022/03/21 11:23:32;;;;;;;0.70;0.68;;;14.50;47.40;;;;;;4393087;32;20227;-68
2022/03/21 11:26:07;;;;;;;0.85;0.65;;;14.60;46.80;;;;;;4407479;32;20068;-68
2022/03/21 11:29:04;;;;;;;0.88;0.80;;;14.70;46.50;;;;;;4413289;32;20088;-68
2022/03/21 11:31:40;;;;;;;4.87;1.08;;;15.10;45.70;;;;;;4405526;32;20475;-69
2022/03/21 11:34:35;;;;;;;1.95;0.50;;;14.80;44.90;;;;;;4420879;32;20073;-67
2022/03/21 11:37:01;;;;;;;0.60;0.60;;;15.20;44.70;;;;;;4416961;32;20081;-67
2022/03/21 11:39:27;;;;;;;0.50;0.50;;;15.40;44.80;;;;;;4410560;32;20552;-68
2022/03/21 11:42:07;;;;;;;1.10;0.75;;;16.00;44.60;;;;;;4411675;32;20120;-69
2022/03/21 11:44:33;;;;;;;0.80;0.80;;;16.20;42.60;;;;;;4417341;32;20092;-67
2022/03/21 11:47:23;;;;;;;1.33;0.90;;;15.90;43.60;;;;;;4413649;32;20783;-66
2022/03/21 11:49:49;;;;;;;0.80;0.80;;;16.00;43.40;;;;;;4406433;32;20338;-67
2022/03/21 11:52:15;;;;;;;0.80;0.70;;;15.90;43.40;;;;;;4408596;32;20424;-67
2022/03/21 11:54:42;;;;;;;0.62;0.62;;;16.20;43.20;;;;;;4395085;32;20089;-67
2022/03/21 11:57:10;;;;;;;2.80;1.52;;;16.40;42.50;;;;;;4402669;32;20120;-67
2022/03/21 11:59:47;;;;;;;1.30;1.08;;;16.60;43.30;;;;;;4396123;32;20190;-67
2022/03/21 12:02:15;;;;;;;2.62;0.70;;;16.60;42.30;;;;;;4399224;32;20185;-67
2022/03/21 12:04:41;;;;;;;2.28;1.05;;;16.80;41.20;;;;;;4402690;32;20113;-67
2022/03/21 12:07:17;;;;;;;1.17;0.85;;;16.90;41.40;;;;;;4407147;32;20092;-67
2022/03/21 12:09:45;;;;;;;1.42;0.73;;;16.90;40.90;;;;;;4405925;32;20100;-67
2022/03/21 12:12:12;;;;;;;0.70;0.70;;;16.70;41.70;;;;;;4404951;32;20507;-68
2022/03/21 12:14:47;;;;;;;3.35;0.80;;;16.60;42.00;;;;;;4408243;32;20109;-68
2022/03/21 12:17:15;;;;;;;1.05;0.80;;;17.20;41.30;;;;;;4415106;32;20640;-68
2022/03/21 12:19:51;;;;;;;1.75;0.85;;;17.40;40.40;;;;;;4412518;32;20097;-69
2022/03/21 12:22:33;;;;;;;1.37;0.80;;;17.90;40.60;;;;;;4402273;32;20129;-68
2022/03/21 12:25:01;;;;;;;0.60;0.60;;;18.50;40.00;;;;;;4385979;32;20250;-69
2022/03/21 12:27:32;;;;;;;0.60;0.60;;;18.30;39.80;;;;;;4402353;32;20102;-67
2022/03/21 12:30:30;;;;;;;0.70;0.70;;;18.30;39.90;;;;;;4411503;32;20073;-67
2022/03/21 12:33:01;;;;;;;0.75;0.75;;;18.40;39.40;;;;;;4401719;32;20150;-67
2022/03/21 12:35:44;;;;;;;1.33;0.77;;;18.20;39.50;;;;;;4416207;32;20116;-67
2022/03/21 12:38:34;;;;;;;5.45;2.25;;;18.20;39.80;;;;;;4410196;32;20093;-67
2022/03/21 12:41:03;;;;;;;0.60;0.60;;;18.60;39.70;;;;;;4391680;32;20081;-67
2022/03/21 12:43:32;;;;;;;1.30;0.77;;;19.10;38.70;;;;;;4402304;32;20089;-68
2022/03/21 12:46:07;;;;;;;0.60;0.60;;;18.90;38.80;;;;;;4386529;32;20084;-68
2022/03/21 12:48:34;;;;;;;0.50;0.50;;;18.60;39.10;;;;;;4401974;32;20443;-68
2022/03/21 12:51:01;;;;;;;0.68;0.68;;;18.40;39.70;;;;;;4404076;32;20084;-68
2022/03/21 12:53:44;;;;;;;0.90;0.75;;;19.00;39.70;;;;;;4408564;32;20085;-68
2022/03/21 12:56:12;;;;;;;1.20;0.90;;;20.20;38.40;;;;;;4403378;32;20101;-68
2022/03/21 12:58:42;;;;;;;1.02;0.93;;;19.20;38.50;;;;;;4411368;32;20201;-69
2022/03/21 13:01:08;;;;;;;0.47;0.47;;;19.00;39.60;;;;;;4412007;32;20498;-68
2022/03/21 13:03:34;;;;;;;1.90;0.82;;;19.60;38.40;;;;;;4411540;32;20587;-68
2022/03/21 13:10:50;;;;;;;0.88;0.88;;;19.80;37.30;;;;;;4404630;32;20157;-68
2022/03/21 13:11:37;;;;;;;0.43;0.43;;;20.40;36.80;;;;;;4400234;32;20147;-67